createdAt,value
2019-03-22T00:00:13.539Z,0.60
2019-03-22T00:02:42.352Z,0.40
2019-03-22T00:05:10.942Z,0.50
2019-03-22T00:07:39.750Z,0.47
2019-03-22T00:10:08.745Z,0.33
2019-03-22T00:12:37.193Z,0.30
2019-03-22T00:15:07.497Z,0.30
2019-03-22T00:17:35.941Z,0.20
2019-03-22T00:20:08.888Z,0.20
2019-03-22T00:22:37.358Z,0.20
2019-03-22T00:25:06.779Z,0.30
2019-03-22T00:27:35.306Z,0.30
2019-03-22T00:30:09.678Z,0.30
2019-03-22T00:32:38.158Z,0.20
2019-03-22T00:35:07.240Z,0.40
2019-03-22T00:37:35.685Z,0.40
2019-03-22T00:40:05.881Z,0.40
2019-03-22T00:42:34.683Z,0.30
2019-03-22T00:45:04.439Z,0.30
2019-03-22T00:47:33.950Z,0.20
2019-03-22T00:50:02.995Z,0.30
2019-03-22T00:52:31.443Z,0.20
2019-03-22T00:54:59.983Z,0.30
2019-03-22T00:57:28.978Z,0.20
2019-03-22T00:59:57.534Z,0.30
2019-03-22T01:02:26.001Z,0.30
2019-03-22T01:04:54.449Z,0.40
2019-03-22T01:07:22.901Z,0.20
2019-03-22T01:09:51.369Z,0.30
2019-03-22T01:12:19.901Z,0.30
2019-03-22T01:14:48.336Z,0.70
2019-03-22T01:17:16.809Z,0.40
2019-03-22T01:19:45.250Z,0.30
2019-03-22T01:22:13.981Z,0.30
2019-03-22T01:24:42.426Z,0.20
2019-03-22T01:27:11.312Z,0.20
2019-03-22T01:29:39.781Z,0.20
2019-03-22T01:32:08.325Z,0.20
2019-03-22T01:34:37.102Z,0.30
2019-03-22T01:37:05.631Z,0.30
2019-03-22T01:39:34.134Z,0.30
2019-03-22T01:42:02.996Z,0.20
2019-03-22T01:44:31.914Z,0.30
2019-03-22T01:47:00.470Z,0.20
2019-03-22T01:49:29.283Z,0.20
2019-03-22T01:51:57.730Z,0.27
2019-03-22T01:54:26.562Z,0.20
2019-03-22T01:56:55.011Z,0.33
2019-03-22T01:59:23.489Z,0.40
2019-03-22T02:01:51.934Z,0.50
2019-03-22T02:04:20.867Z,0.53
2019-03-22T02:06:49.399Z,0.90
2019-03-22T02:09:17.914Z,0.80
2019-03-22T02:11:46.381Z,0.47
2019-03-22T02:14:14.834Z,0.30
2019-03-22T02:16:43.280Z,0.30
2019-03-22T02:19:11.738Z,0.20
2019-03-22T02:21:41.289Z,0.20
2019-03-22T02:24:10.050Z,0.20
2019-03-22T02:26:38.491Z,0.30
2019-03-22T02:29:07.434Z,0.33
2019-03-22T02:31:36.227Z,0.40
2019-03-22T02:34:04.845Z,0.20
2019-03-22T02:36:33.385Z,0.30
2019-03-22T02:39:01.830Z,0.40
2019-03-22T02:41:30.298Z,0.30
2019-03-22T02:43:59.129Z,0.27
2019-03-22T02:46:27.578Z,0.20
2019-03-22T02:48:56.043Z,0.40
2019-03-22T02:51:24.779Z,0.40
2019-03-22T02:53:53.325Z,0.20
2019-03-22T02:56:21.763Z,0.40
2019-03-22T02:58:50.218Z,0.50
2019-03-22T03:01:18.679Z,0.30
2019-03-22T03:03:47.130Z,0.30
2019-03-22T03:06:15.577Z,0.30
2019-03-22T03:08:44.045Z,0.20
2019-03-22T03:11:12.486Z,0.33
2019-03-22T03:13:40.930Z,0.30
2019-03-22T03:16:09.401Z,0.30
2019-03-22T03:18:37.846Z,0.23
2019-03-22T03:21:06.393Z,0.40
2019-03-22T03:23:35.238Z,0.30
2019-03-22T03:26:03.677Z,0.60
2019-03-22T03:28:36.991Z,0.37
2019-03-22T03:31:02.340Z,0.30
2019-03-22T03:33:30.989Z,0.20
2019-03-22T03:35:59.907Z,0.27
2019-03-22T03:38:28.362Z,0.30
2019-03-22T03:40:56.873Z,0.20
2019-03-22T03:43:25.342Z,0.37
2019-03-22T03:45:53.820Z,0.33
2019-03-22T03:48:22.732Z,0.40
2019-03-22T03:50:51.198Z,0.50
2019-03-22T03:53:19.647Z,0.20
2019-03-22T03:55:48.464Z,0.50
2019-03-22T03:58:16.975Z,0.40
2019-03-22T04:00:45.431Z,0.43
2019-03-22T04:03:13.969Z,0.30
2019-03-22T04:05:42.422Z,0.40
2019-03-22T04:08:11.036Z,0.20
2019-03-22T04:10:39.591Z,0.30
2019-03-22T04:13:08.035Z,0.40
2019-03-22T04:15:37.036Z,0.30
2019-03-22T04:18:05.645Z,0.57
2019-03-22T04:20:34.149Z,0.90
2019-03-22T04:23:02.634Z,0.50
2019-03-22T04:25:31.074Z,0.40
2019-03-22T04:27:59.559Z,0.40
2019-03-22T04:30:28.003Z,0.60
2019-03-22T04:32:56.450Z,4.17
2019-03-22T04:35:24.923Z,4.50
2019-03-22T04:37:53.370Z,1.80
2019-03-22T04:40:29.785Z,0.80
2019-03-22T04:42:58.590Z,0.40
2019-03-22T04:45:29.878Z,0.40
2019-03-22T04:48:04.472Z,0.40
2019-03-22T04:50:35.992Z,0.47
2019-03-22T04:53:05.098Z,0.57
2019-03-22T04:55:34.786Z,0.50
2019-03-22T04:58:04.768Z,0.37
2019-03-22T05:00:34.056Z,0.30
2019-03-22T05:03:03.066Z,0.30
2019-03-22T05:05:31.937Z,0.40
2019-03-22T05:08:00.929Z,0.30
2019-03-22T05:10:29.920Z,0.20
2019-03-22T05:13:00.859Z,0.30
2019-03-22T05:15:31.680Z,0.40
2019-03-22T05:18:02.222Z,0.30
2019-03-22T05:20:32.786Z,0.50
2019-03-22T05:23:02.581Z,0.40
2019-03-22T05:25:31.689Z,0.30
2019-03-22T05:28:02.277Z,0.40
2019-03-22T05:30:53.804Z,0.40
2019-03-22T05:33:22.252Z,0.37
2019-03-22T05:35:50.697Z,0.40
2019-03-22T05:38:19.561Z,0.40
2019-03-22T05:40:48.015Z,0.40
2019-03-22T05:43:16.540Z,0.30
2019-03-22T05:45:45.008Z,0.20
2019-03-22T05:48:13.844Z,0.30
2019-03-22T05:50:42.334Z,0.40
2019-03-22T05:53:10.789Z,0.40
2019-03-22T05:55:39.305Z,0.33
2019-03-22T05:58:07.802Z,0.40
2019-03-22T06:00:36.249Z,0.50
2019-03-22T06:03:04.994Z,0.77
2019-03-22T06:05:33.541Z,9.60
2019-03-22T06:08:01.993Z,8.57
2019-03-22T06:10:30.533Z,6.13
2019-03-22T06:12:58.987Z,6.77
2019-03-22T06:15:27.429Z,9.23
2019-03-22T06:17:55.909Z,3.20
2019-03-22T06:20:24.358Z,0.83
2019-03-22T06:22:52.804Z,0.80
2019-03-22T06:25:21.284Z,0.50
2019-03-22T06:27:49.818Z,0.67
2019-03-22T06:30:18.273Z,2.00
2019-03-22T06:32:46.734Z,16.33
2019-03-22T06:35:15.207Z,6.63
2019-03-22T06:37:43.644Z,2.03
2019-03-22T06:40:12.256Z,0.70
2019-03-22T06:42:40.726Z,0.60
2019-03-22T06:45:09.509Z,0.80
2019-03-22T06:47:38.279Z,0.70
2019-03-22T06:50:08.191Z,0.77
2019-03-22T06:52:36.633Z,0.50
2019-03-22T06:55:06.645Z,0.70
2019-03-22T06:57:35.097Z,0.50
2019-03-22T07:00:09.062Z,0.70
2019-03-22T07:02:37.702Z,0.50
2019-03-22T07:05:06.998Z,0.43
2019-03-22T07:07:35.451Z,1.00
2019-03-22T07:10:05.765Z,0.70
2019-03-22T07:12:34.216Z,0.67
2019-03-22T07:15:02.720Z,0.50
2019-03-22T07:17:31.190Z,0.70
2019-03-22T07:19:59.642Z,0.50
2019-03-22T07:22:28.171Z,0.90
2019-03-22T07:24:57.041Z,0.70
2019-03-22T07:27:25.510Z,0.70
2019-03-22T07:29:53.956Z,0.77
2019-03-22T07:32:22.803Z,0.50
2019-03-22T07:34:51.283Z,0.60
2019-03-22T07:37:19.724Z,0.60
2019-03-22T07:39:48.171Z,0.67
2019-03-22T07:42:17.690Z,0.53
2019-03-22T07:44:46.363Z,0.70
2019-03-22T07:47:14.833Z,0.70
2019-03-22T07:49:43.280Z,0.80
2019-03-22T07:52:12.204Z,0.80
2019-03-22T07:54:40.650Z,0.70
2019-03-22T07:57:09.461Z,0.60
2019-03-22T07:59:42.953Z,1.00
2019-03-22T08:02:11.501Z,0.80
2019-03-22T08:04:39.954Z,1.10
2019-03-22T08:07:08.810Z,1.20
2019-03-22T08:09:37.338Z,1.00
2019-03-22T08:12:05.853Z,1.07
2019-03-22T08:14:34.390Z,1.17
2019-03-22T08:17:03.185Z,1.00
2019-03-22T08:19:31.626Z,1.10
2019-03-22T08:22:00.530Z,1.17
2019-03-22T08:24:29.029Z,1.97
2019-03-22T08:26:57.494Z,2.17
2019-03-22T08:29:25.970Z,1.60
2019-03-22T08:31:54.454Z,2.17
2019-03-22T08:34:23.235Z,2.00
2019-03-22T08:36:51.805Z,1.50
2019-03-22T08:39:20.262Z,1.30
2019-03-22T08:41:48.791Z,1.90
2019-03-22T08:44:17.238Z,1.60
2019-03-22T08:46:46.045Z,1.50
2019-03-22T08:49:14.640Z,0.77
2019-03-22T08:51:43.537Z,1.00
2019-03-22T08:54:12.441Z,0.87
2019-03-22T08:56:40.955Z,1.00
2019-03-22T08:59:09.416Z,0.83
2019-03-22T09:01:38.255Z,0.60
2019-03-22T09:04:06.737Z,0.60
2019-03-22T09:06:35.267Z,0.60
2019-03-22T09:09:05.629Z,0.50
2019-03-22T09:11:34.179Z,0.50
2019-03-22T09:14:02.644Z,0.50
2019-03-22T09:16:31.168Z,0.40
2019-03-22T09:18:59.689Z,0.30
2019-03-22T09:21:28.194Z,0.40
2019-03-22T09:23:56.693Z,0.30
2019-03-22T09:26:25.523Z,0.20
2019-03-22T09:28:53.976Z,0.40
2019-03-22T09:31:22.577Z,0.40
2019-03-22T09:33:51.384Z,0.33
2019-03-22T09:36:19.831Z,0.33
2019-03-22T09:38:48.276Z,0.40
2019-03-22T09:41:16.920Z,0.23
2019-03-22T09:43:45.499Z,0.33
2019-03-22T09:46:14.267Z,0.30
2019-03-22T09:48:42.770Z,0.30
2019-03-22T09:51:11.312Z,0.30
2019-03-22T09:53:39.828Z,0.30
2019-03-22T09:56:08.750Z,0.50
2019-03-22T09:58:37.518Z,0.40
2019-03-22T10:01:06.477Z,0.50
2019-03-22T10:03:35.069Z,0.30
2019-03-22T10:06:03.927Z,0.33
2019-03-22T10:08:32.456Z,0.40
2019-03-22T10:11:00.958Z,0.40
2019-03-22T10:13:29.512Z,0.50
2019-03-22T10:15:58.078Z,0.60
2019-03-22T10:18:26.922Z,0.40
2019-03-22T10:20:55.728Z,0.40
2019-03-22T10:23:24.592Z,0.40
2019-03-22T10:25:53.476Z,0.30
2019-03-22T10:28:21.954Z,0.37
2019-03-22T10:30:50.403Z,0.30
2019-03-22T10:33:22.980Z,0.30
2019-03-22T10:35:49.066Z,0.30
2019-03-22T10:38:30.697Z,0.40
2019-03-22T10:40:48.050Z,0.30
2019-03-22T10:43:16.620Z,0.20
2019-03-22T10:45:45.406Z,0.20
2019-03-22T10:48:13.987Z,0.37
2019-03-22T10:50:42.501Z,0.40
2019-03-22T10:53:11.044Z,0.30
2019-03-22T10:55:39.856Z,0.30
2019-03-22T10:58:20.409Z,0.30
2019-03-22T11:00:38.543Z,0.20
2019-03-22T11:03:07.036Z,0.20
2019-03-22T11:05:35.517Z,0.30
2019-03-22T11:08:04.410Z,0.20
2019-03-22T11:10:32.885Z,0.30
2019-03-22T11:13:01.704Z,0.20
2019-03-22T11:15:30.161Z,0.20
2019-03-22T11:17:59.157Z,0.20
2019-03-22T11:20:27.712Z,0.40
2019-03-22T11:22:56.241Z,0.50
2019-03-22T11:25:24.771Z,0.30
2019-03-22T11:27:53.598Z,0.23
2019-03-22T11:30:22.158Z,0.20
2019-03-22T11:32:50.606Z,0.40
2019-03-22T11:35:19.442Z,0.20
2019-03-22T11:37:47.913Z,0.40
2019-03-22T11:40:17.818Z,0.40
2019-03-22T11:42:46.339Z,0.40
2019-03-22T11:45:20.658Z,0.37
2019-03-22T11:47:49.175Z,0.27
2019-03-22T11:50:17.961Z,0.30
2019-03-22T11:53:05.792Z,0.30
2019-03-22T11:55:34.238Z,0.30
2019-03-22T11:58:02.782Z,0.30
2019-03-22T12:00:31.356Z,0.50
2019-03-22T12:02:59.805Z,0.40
2019-03-22T12:05:28.418Z,0.30
2019-03-22T12:07:57.158Z,0.47
2019-03-22T12:10:26.051Z,0.40
2019-03-22T12:12:54.817Z,0.53
2019-03-22T12:15:23.812Z,0.30
2019-03-22T12:17:52.344Z,0.30
2019-03-22T12:20:22.549Z,0.50
2019-03-22T12:22:51.270Z,0.30
2019-03-22T12:25:25.766Z,0.30
2019-03-22T12:27:54.361Z,0.33
2019-03-22T12:30:22.881Z,0.30
2019-03-22T12:32:51.400Z,0.50
2019-03-22T12:35:20.482Z,0.50
2019-03-22T12:37:49.350Z,0.73
2019-03-22T12:40:20.913Z,0.40
2019-03-22T12:42:49.905Z,0.30
2019-03-22T12:45:27.044Z,0.37
2019-03-22T12:47:55.630Z,0.40
2019-03-22T12:50:24.616Z,0.40
2019-03-22T12:52:53.157Z,0.40
2019-03-22T12:55:23.137Z,0.40
2019-03-22T12:57:51.577Z,0.30
2019-03-22T13:00:24.880Z,0.40
2019-03-22T13:02:53.628Z,0.27
2019-03-22T13:05:22.972Z,0.50
2019-03-22T13:07:52.037Z,0.40
2019-03-22T13:10:27.736Z,0.30
2019-03-22T13:12:56.353Z,0.30
2019-03-22T13:15:25.238Z,0.40
2019-03-22T13:17:53.691Z,0.30
2019-03-22T13:20:22.225Z,0.30
2019-03-22T13:22:51.011Z,0.43
2019-03-22T13:25:21.213Z,0.30
2019-03-22T13:27:49.889Z,0.40
2019-03-22T13:30:30.478Z,0.30
2019-03-22T13:32:59.187Z,0.30
2019-03-22T13:35:27.693Z,0.37
2019-03-22T13:37:56.172Z,0.40
2019-03-22T13:40:24.693Z,0.40
2019-03-22T13:42:53.285Z,0.40
2019-03-22T13:45:21.762Z,0.20
2019-03-22T13:47:50.212Z,0.30
2019-03-22T13:50:18.810Z,0.40
2019-03-22T13:52:47.278Z,0.37
2019-03-22T13:55:15.830Z,0.40
2019-03-22T13:57:44.707Z,0.50
2019-03-22T14:00:15.455Z,0.30
2019-03-22T14:02:43.906Z,0.30
2019-03-22T14:05:13.113Z,0.30
2019-03-22T14:07:41.884Z,0.33
2019-03-22T14:10:13.481Z,0.40
2019-03-22T14:12:41.957Z,0.40
2019-03-22T14:15:10.809Z,0.30
2019-03-22T14:17:39.261Z,0.40
2019-03-22T14:20:11.444Z,0.40
2019-03-22T14:22:37.973Z,0.50
2019-03-22T14:25:06.713Z,0.30
2019-03-22T14:27:35.166Z,0.40
2019-03-22T14:30:06.353Z,0.40
2019-03-22T14:32:34.901Z,0.33
2019-03-22T14:35:04.281Z,0.40
2019-03-22T14:37:32.800Z,0.60
2019-03-22T14:40:01.297Z,0.50
2019-03-22T14:42:29.798Z,0.50
2019-03-22T14:44:58.245Z,0.40
2019-03-22T14:47:26.725Z,0.37
2019-03-22T14:49:55.173Z,0.50
2019-03-22T14:52:23.961Z,0.20
2019-03-22T14:54:52.445Z,0.40
2019-03-22T14:57:21.337Z,0.50
2019-03-22T14:59:58.557Z,0.40
2019-03-22T15:02:20.062Z,0.37
2019-03-22T15:04:48.561Z,0.40
2019-03-22T15:07:19.972Z,0.37
2019-03-22T15:09:47.209Z,0.40
2019-03-22T15:12:15.749Z,0.30
2019-03-22T15:14:48.913Z,0.60
2019-03-22T15:17:22.017Z,0.60
2019-03-22T15:19:55.279Z,0.40
2019-03-22T15:22:31.283Z,0.50
2019-03-22T15:25:07.293Z,0.60
2019-03-22T15:27:53.969Z,0.40
2019-03-22T15:30:33.546Z,0.50
2019-03-22T15:33:06.337Z,0.50
2019-03-22T15:35:53.073Z,0.50
2019-03-22T15:38:39.995Z,0.50
2019-03-22T15:41:08.563Z,0.40
2019-03-22T15:43:37.014Z,0.40
2019-03-22T15:46:05.495Z,0.53
2019-03-22T15:48:34.382Z,0.30
2019-03-22T15:51:03.301Z,0.30
2019-03-22T15:53:31.766Z,0.50
2019-03-22T15:56:00.224Z,0.50
2019-03-22T15:58:29.028Z,0.60
2019-03-22T16:00:57.492Z,0.67
2019-03-22T16:03:25.970Z,0.40
2019-03-22T16:05:54.770Z,0.30
2019-03-22T16:08:23.289Z,1.00
2019-03-22T16:10:52.053Z,0.40
2019-03-22T16:13:20.571Z,0.77
2019-03-22T16:15:49.051Z,0.37
2019-03-22T16:18:17.502Z,0.40
2019-03-22T16:20:45.992Z,0.40
2019-03-22T16:23:16.073Z,0.40
2019-03-22T16:25:44.533Z,0.40
2019-03-22T16:28:13.234Z,0.30
2019-03-22T16:30:41.681Z,0.60
2019-03-22T16:33:10.438Z,0.40
2019-03-22T16:35:38.910Z,0.27
2019-03-22T16:38:07.352Z,0.77
2019-03-22T16:40:35.829Z,0.57
2019-03-22T16:43:04.730Z,0.33
2019-03-22T16:45:38.713Z,0.50
2019-03-22T16:48:07.329Z,0.40
2019-03-22T16:50:35.776Z,0.30
2019-03-22T16:53:04.755Z,0.20
2019-03-22T16:55:33.222Z,0.30
2019-03-22T16:58:01.681Z,0.40
2019-03-22T17:00:30.171Z,0.47
2019-03-22T17:02:58.702Z,0.37
2019-03-22T17:05:27.153Z,0.40
2019-03-22T17:07:55.606Z,0.40
2019-03-22T17:10:24.356Z,0.50
2019-03-22T17:12:52.886Z,0.50
2019-03-22T17:15:21.671Z,0.60
2019-03-22T17:17:50.149Z,0.30
2019-03-22T17:20:18.694Z,0.60
2019-03-22T17:22:47.527Z,0.40
2019-03-22T17:25:15.974Z,0.50
2019-03-22T17:27:44.794Z,0.40
2019-03-22T17:30:13.773Z,0.30
2019-03-22T17:32:42.571Z,0.40
2019-03-22T17:35:11.285Z,0.80
2019-03-22T17:37:39.749Z,0.80
2019-03-22T17:40:09.369Z,0.60
2019-03-22T17:42:37.817Z,0.60
2019-03-22T17:45:11.996Z,0.53
2019-03-22T17:47:40.464Z,0.43
2019-03-22T17:50:10.976Z,0.60
2019-03-22T17:52:39.417Z,0.70
2019-03-22T17:55:09.377Z,0.90
2019-03-22T17:57:37.890Z,0.63
2019-03-22T18:00:08.873Z,0.70
2019-03-22T18:02:37.354Z,0.70
2019-03-22T18:05:07.946Z,0.40
2019-03-22T18:07:36.740Z,0.50
2019-03-22T18:10:08.025Z,0.50
2019-03-22T18:12:36.550Z,0.70
2019-03-22T18:15:07.597Z,0.50
2019-03-22T18:17:36.073Z,0.57
2019-03-22T18:20:07.233Z,0.50
2019-03-22T18:22:35.681Z,0.30
2019-03-22T18:25:06.604Z,0.80
2019-03-22T18:27:35.678Z,0.50
2019-03-22T18:30:07.337Z,0.57
2019-03-22T18:32:35.819Z,0.90
2019-03-22T18:35:05.402Z,0.83
2019-03-22T18:37:33.921Z,0.80
2019-03-22T18:40:02.413Z,0.87
2019-03-22T18:42:31.193Z,0.80
2019-03-22T18:44:59.710Z,0.70
2019-03-22T18:47:28.251Z,0.60
2019-03-22T18:49:56.703Z,1.23
2019-03-22T18:52:25.223Z,1.00
2019-03-22T18:54:53.929Z,0.53
2019-03-22T18:57:22.794Z,0.90
2019-03-22T18:59:51.274Z,1.13
2019-03-22T19:02:19.792Z,1.30
2019-03-22T19:04:48.257Z,0.80
2019-03-22T19:07:16.796Z,1.10
2019-03-22T19:09:45.247Z,1.00
2019-03-22T19:12:14.095Z,1.20
2019-03-22T19:14:42.904Z,0.80
2019-03-22T19:17:11.770Z,0.70
2019-03-22T19:19:40.543Z,0.50
2019-03-22T19:22:09.026Z,0.93
2019-03-22T19:24:37.810Z,1.27
2019-03-22T19:27:06.599Z,1.47
2019-03-22T19:29:35.042Z,1.50
2019-03-22T19:32:13.124Z,1.40
2019-03-22T19:34:34.029Z,1.47
2019-03-22T19:37:02.779Z,1.03
2019-03-22T19:39:31.565Z,1.00
2019-03-22T19:42:00.046Z,0.80
2019-03-22T19:44:28.569Z,0.80
2019-03-22T19:46:57.314Z,1.00
2019-03-22T19:49:25.795Z,0.97
2019-03-22T19:51:54.246Z,0.80
2019-03-22T19:54:22.702Z,1.20
2019-03-22T19:56:51.257Z,1.10
2019-03-22T19:59:19.787Z,1.20
2019-03-22T20:01:48.242Z,1.30
2019-03-22T20:04:17.090Z,1.60
2019-03-22T20:06:45.541Z,1.20
2019-03-22T20:09:13.967Z,0.93
2019-03-22T20:11:42.499Z,1.40
2019-03-22T20:14:10.958Z,1.00
2019-03-22T20:16:39.686Z,1.00
2019-03-22T20:19:08.162Z,1.23
2019-03-22T20:21:36.650Z,1.00
2019-03-22T20:24:05.271Z,1.00
2019-03-22T20:26:33.795Z,0.93
2019-03-22T20:29:02.345Z,0.67
2019-03-22T20:31:31.106Z,1.03
2019-03-22T20:34:00.003Z,0.80
2019-03-22T20:36:28.471Z,0.60
2019-03-22T20:38:57.283Z,0.60
2019-03-22T20:41:26.034Z,0.60
2019-03-22T20:43:54.554Z,0.43
2019-03-22T20:46:23.002Z,0.40
2019-03-22T20:48:51.827Z,0.40
2019-03-22T20:51:20.608Z,0.73
2019-03-22T20:53:49.086Z,0.70
2019-03-22T20:56:17.531Z,0.53
2019-03-22T20:58:45.977Z,0.77
2019-03-22T21:01:14.441Z,0.57
2019-03-22T21:03:42.895Z,0.60
2019-03-22T21:06:11.446Z,0.63
2019-03-22T21:08:39.923Z,1.20
2019-03-22T21:11:08.490Z,0.80
2019-03-22T21:13:36.970Z,0.70
2019-03-22T21:16:05.481Z,0.70
2019-03-22T21:18:33.990Z,0.60
2019-03-22T21:21:02.513Z,0.90
2019-03-22T21:23:36.340Z,1.07
2019-03-22T21:26:01.489Z,0.57
2019-03-22T21:28:29.974Z,0.50
2019-03-22T21:30:58.430Z,0.73
2019-03-22T21:33:26.882Z,0.70
2019-03-22T21:35:55.548Z,0.90
2019-03-22T21:38:24.069Z,0.60
2019-03-22T21:40:52.561Z,0.73
2019-03-22T21:43:22.074Z,0.80
2019-03-22T21:45:50.689Z,0.60
2019-03-22T21:48:19.321Z,0.70
2019-03-22T21:50:47.874Z,0.40
2019-03-22T21:53:16.410Z,0.60
2019-03-22T21:55:45.398Z,0.50
2019-03-22T21:58:14.303Z,0.40
2019-03-22T22:00:42.847Z,0.50
2019-03-22T22:03:11.788Z,0.50
2019-03-22T22:05:47.906Z,0.50
2019-03-22T22:08:10.549Z,0.60
2019-03-22T22:10:39.066Z,0.57
2019-03-22T22:13:07.514Z,0.80
2019-03-22T22:15:36.127Z,0.67
2019-03-22T22:18:04.899Z,0.60
2019-03-22T22:20:33.438Z,0.80
2019-03-22T22:23:01.957Z,0.50
2019-03-22T22:25:30.481Z,0.63
2019-03-22T22:27:59.608Z,0.53
2019-03-22T22:30:28.178Z,0.60
2019-03-22T22:32:56.765Z,0.70
2019-03-22T22:35:25.670Z,0.70
2019-03-22T22:37:54.225Z,0.60
2019-03-22T22:40:22.749Z,0.53
2019-03-22T22:42:51.223Z,0.50
2019-03-22T22:45:20.045Z,0.93
2019-03-22T22:47:48.821Z,0.53
2019-03-22T22:50:17.270Z,0.70
2019-03-22T22:52:46.093Z,0.60
2019-03-22T22:55:14.613Z,0.70
2019-03-22T22:57:43.069Z,0.60
2019-03-22T23:00:14.080Z,0.60
2019-03-22T23:02:43.130Z,0.63
2019-03-22T23:05:11.660Z,0.23
2019-03-22T23:07:41.029Z,0.40
2019-03-22T23:10:09.617Z,0.57
2019-03-22T23:12:38.062Z,0.50
2019-03-22T23:15:07.992Z,0.70
2019-03-22T23:17:36.534Z,0.67
2019-03-22T23:20:07.542Z,0.50
2019-03-22T23:22:35.985Z,0.67
2019-03-22T23:25:06.391Z,0.50
2019-03-22T23:27:35.107Z,0.50
2019-03-22T23:30:05.358Z,0.77
2019-03-22T23:32:34.174Z,0.40
2019-03-22T23:35:02.692Z,0.50
2019-03-22T23:37:31.142Z,0.30
2019-03-22T23:39:59.949Z,0.43
2019-03-22T23:42:28.393Z,0.60
2019-03-22T23:44:56.861Z,0.60
2019-03-22T23:47:25.311Z,0.50
2019-03-22T23:49:54.014Z,2.73
2019-03-22T23:52:22.482Z,5.80
2019-03-22T23:54:50.961Z,3.60
2019-03-22T23:57:19.690Z,5.13
2019-03-22T23:59:48.405Z,2.70
